Time;durP1;ratioP1;P1;durP2;ratioP2;P2;SDS_P1;SDS_P2;PMS_P1;PMS_P2;Temp;Humidity;BMP_temperature;BMP_pressure;BME280_temperature;BME280_humidity;BME280_pressure;Samples;Min_cycle;Max_cycle;Signal;HPM_P1;HPM_P2
2022/08/16 00:00:26;;;;;;;2.67;2.47;;;;;;;17.20;100.00;95829.94;5050542;27;102833;-65
2022/08/16 00:02:54;;;;;;;2.73;2.50;;;;;;;17.21;100.00;95826.13;5051163;27;102060;-65
2022/08/16 00:05:25;;;;;;;2.50;2.40;;;;;;;17.18;100.00;95830.25;5051214;27;102345;-65
2022/08/16 00:07:53;;;;;;;2.67;2.47;;;;;;;17.18;100.00;95832.94;5050494;27;102130;-65
2022/08/16 00:10:23;;;;;;;2.50;2.30;;;;;;;17.20;100.00;95828.06;5053274;27;102012;-65
2022/08/16 00:12:51;;;;;;;2.60;2.50;;;;;;;17.26;100.00;95824.13;5049086;27;105019;-65
2022/08/16 00:15:24;;;;;;;3.03;2.73;;;;;;;17.27;100.00;95822.25;5050927;27;102121;-65
2022/08/16 00:17:52;;;;;;;2.57;2.47;;;;;;;17.31;100.00;95812.47;5049222;27;105330;-65
2022/08/16 00:20:20;;;;;;;2.57;2.37;;;;;;;17.32;100.00;95814.84;5048855;27;105970;-65
2022/08/16 00:22:49;;;;;;;3.20;2.40;;;;;;;17.33;100.00;95821.03;5049660;27;102131;-65
2022/08/16 00:25:19;;;;;;;2.23;2.13;;;;;;;17.30;100.00;95821.63;5050531;27;103516;-65
2022/08/16 00:27:46;;;;;;;2.30;2.20;;;;;;;17.31;100.00;95824.03;5050547;27;102541;-65
2022/08/16 00:30:15;;;;;;;2.57;2.43;;;;;;;17.31;100.00;95813.28;5052900;27;102004;-65
2022/08/16 00:32:45;;;;;;;2.50;2.30;;;;;;;17.38;100.00;95813.66;5050157;27;103013;-65
2022/08/16 00:35:16;;;;;;;2.17;2.07;;;;;;;17.44;100.00;95815.13;5051006;27;101721;-65
2022/08/16 00:37:44;;;;;;;2.27;2.17;;;;;;;17.47;100.00;95809.13;5049239;27;105682;-65
2022/08/16 00:40:16;;;;;;;2.50;2.30;;;;;;;17.48;100.00;95808.03;5048666;27;105537;-65
2022/08/16 00:42:44;;;;;;;2.30;2.20;;;;;;;17.56;100.00;95803.81;5049430;27;101891;-65
2022/08/16 00:45:33;;;;;;;2.30;2.13;;;;;;;17.62;100.00;95803.38;5050513;27;102288;-65
2022/08/16 00:48:03;;;;;;;2.20;2.10;;;;;;;17.67;100.00;95802.44;5048695;27;105927;-65
2022/08/16 00:50:33;;;;;;;2.30;2.20;;;;;;;17.69;100.00;95803.72;5048525;27;101989;-65
2022/08/16 00:53:00;;;;;;;2.63;2.43;;;;;;;17.70;100.00;95804.50;5051831;27;105709;-65
2022/08/16 00:55:30;;;;;;;2.40;2.20;;;;;;;17.71;100.00;95801.50;5050590;27;101763;-65
2022/08/16 00:57:59;;;;;;;2.53;2.37;;;;;;;17.68;100.00;95791.38;5048487;27;106053;-65
2022/08/16 01:00:28;;;;;;;2.50;2.30;;;;;;;17.69;100.00;95794.84;5048354;27;106099;-65
2022/08/16 01:02:57;;;;;;;2.73;2.53;;;;;;;17.72;100.00;95788.88;5048799;27;101916;-65
2022/08/16 01:05:24;;;;;;;2.63;2.43;;;;;;;17.75;100.00;95793.63;5049072;27;105180;-65
2022/08/16 01:07:52;;;;;;;2.90;2.40;;;;;;;17.76;100.00;95787.16;5048462;27;105812;-65
2022/08/16 01:10:20;;;;;;;2.30;2.20;;;;;;;17.76;100.00;95787.94;5048931;27;101882;-65
2022/08/16 01:12:49;;;;;;;2.77;2.57;;;;;;;17.69;100.00;95792.16;5048656;27;105565;-65
2022/08/16 01:15:16;;;;;;;4.03;2.47;;;;;;;17.67;100.00;95792.50;5051512;27;105768;-65
2022/08/16 01:17:46;;;;;;;3.27;2.43;;;;;;;17.68;100.00;95801.34;5048967;27;105609;-65
2022/08/16 01:20:15;;;;;;;3.30;3.07;;;;;;;17.58;100.00;95807.78;5048217;27;105858;-65
2022/08/16 01:22:52;;;;;;;3.13;2.93;;;;;;;17.32;100.00;95816.72;5050380;27;101698;-65
2022/08/16 01:25:27;;;;;;;3.00;2.70;;;;;;;17.22;100.00;95811.63;5048686;27;104428;-65
2022/08/16 01:27:57;;;;;;;3.90;2.80;;;;;;;17.18;100.00;95818.69;5049734;27;102540;-65
2022/08/16 01:30:28;;;;;;;2.33;2.23;;;;;;;17.13;100.00;95808.88;5051209;27;101993;-64
2022/08/16 01:32:58;;;;;;;2.60;2.40;;;;;;;17.16;100.00;95810.16;5052272;27;104824;-65
2022/08/16 01:35:34;;;;;;;2.47;2.37;;;;;;;17.16;100.00;95810.16;5051394;27;105378;-65
2022/08/16 01:38:18;;;;;;;2.77;2.50;;;;;;;17.19;100.00;95812.22;5055695;27;102000;-65
2022/08/16 01:40:47;;;;;;;2.67;2.53;;;;;;;17.24;100.00;95804.84;5051562;27;105323;-65
2022/08/16 01:43:14;;;;;;;2.83;2.57;;;;;;;17.28;100.00;95810.41;5052084;27;101969;-65
2022/08/16 01:45:42;;;;;;;3.80;2.73;;;;;;;17.09;100.00;95815.16;5052011;27;105492;-65
2022/08/16 01:48:13;;;;;;;3.50;3.00;;;;;;;17.08;100.00;95811.69;5051607;27;105257;-65
2022/08/16 01:50:45;;;;;;;2.93;2.73;;;;;;;17.03;100.00;95811.00;5051701;27;102068;-65
2022/08/16 01:53:13;;;;;;;3.43;2.83;;;;;;;17.05;100.00;95814.19;5051880;27;104357;-65
2022/08/16 01:56:02;;;;;;;2.43;2.20;;;;;;;17.06;100.00;95815.78;5051198;27;105276;-65
2022/08/16 01:58:32;;;;;;;2.70;2.50;;;;;;;17.05;100.00;95823.03;5051694;27;102075;-65
2022/08/16 02:00:59;;;;;;;3.40;3.10;;;;;;;16.93;100.00;95811.22;5054736;27;105369;-65
2022/08/16 02:03:29;;;;;;;3.43;3.13;;;;;;;16.90;100.00;95807.25;5051890;27;102054;-65
2022/08/16 02:05:56;;;;;;;3.33;3.10;;;;;;;16.90;100.00;95801.09;5051645;27;105519;-65
2022/08/16 02:08:25;;;;;;;3.17;2.97;;;;;;;16.90;100.00;95807.25;5051328;27;105400;-65
2022/08/16 02:10:53;;;;;;;2.90;2.77;;;;;;;16.97;100.00;95806.84;5051521;27;101935;-65
2022/08/16 02:13:22;;;;;;;3.20;3.00;;;;;;;16.95;100.00;95814.41;5051700;27;105076;-65
2022/08/16 02:15:49;;;;;;;3.20;3.00;;;;;;;16.94;100.00;95818.22;5050811;27;105537;-65
2022/08/16 02:18:17;;;;;;;3.60;3.33;;;;;;;16.91;100.00;95816.13;5051526;27;101895;-65
2022/08/16 02:20:49;;;;;;;3.70;3.07;;;;;;;16.91;100.00;95830.34;5051586;27;105745;-65
2022/08/16 02:23:17;;;;;;;3.20;3.00;;;;;;;16.91;100.00;95829.53;5054167;27;105697;-65
2022/08/16 02:25:46;;;;;;;2.87;2.70;;;;;;;16.92;100.00;95833.81;5052806;27;103079;-65
2022/08/16 02:28:13;;;;;;;4.60;3.20;;;;;;;16.89;100.00;95821.78;5050657;27;105442;-65
2022/08/16 02:30:42;;;;;;;3.67;3.27;;;;;;;16.94;100.00;95835.09;5051521;27;101871;-65
2022/08/16 02:33:10;;;;;;;3.17;2.90;;;;;;;16.80;100.00;95839.72;5051207;27;105221;-65
2022/08/16 02:35:38;;;;;;;3.57;3.27;;;;;;;16.84;100.00;95839.91;5051973;27;102627;-65
2022/08/16 02:38:07;;;;;;;3.33;3.13;;;;;;;16.84;100.00;95843.38;5051336;27;101882;-65
2022/08/16 02:40:35;;;;;;;3.50;3.20;;;;;;;16.88;100.00;95847.06;5050720;27;104929;-65
2022/08/16 02:43:02;;;;;;;3.00;2.80;;;;;;;16.93;100.00;95854.19;5054059;27;105381;-65
2022/08/16 02:45:30;;;;;;;3.47;3.17;;;;;;;16.93;100.00;95864.94;5051196;27;105466;-64
2022/08/16 02:47:59;;;;;;;4.83;3.53;;;;;;;16.85;100.00;95863.00;5050148;27;105376;-65
2022/08/16 02:50:29;;;;;;;3.60;3.30;;;;;;;16.78;100.00;95857.25;5050698;27;102557;-65
2022/08/16 02:52:56;;;;;;;4.13;3.10;;;;;;;16.67;100.00;95853.97;5051097;27;104997;-65
2022/08/16 02:55:23;;;;;;;3.33;3.10;;;;;;;16.74;100.00;95861.63;5050314;27;105294;-65
2022/08/16 02:57:50;;;;;;;3.87;3.50;;;;;;;16.64;100.00;95859.16;5050526;27;102127;-65
2022/08/16 03:00:18;;;;;;;3.57;3.27;;;;;;;16.62;100.00;95858.66;5051062;27;104808;-65
2022/08/16 03:02:46;;;;;;;3.57;3.27;;;;;;;16.67;100.00;95845.91;5051541;27;102636;-65
2022/08/16 03:05:17;;;;;;;3.00;2.80;;;;;;;16.66;100.00;95832.78;5054433;27;101868;-65
2022/08/16 03:07:44;;;;;;;3.23;2.90;;;;;;;16.71;100.00;95836.16;5050178;27;106101;-65
2022/08/16 03:10:12;;;;;;;3.30;3.00;;;;;;;16.76;100.00;95835.25;5050571;27;102437;-65
2022/08/16 03:12:44;;;;;;;2.67;2.47;;;;;;;16.75;100.00;95841.72;5050774;27;105235;-65
2022/08/16 03:15:14;;;;;;;2.60;2.40;;;;;;;16.78;100.00;95843.81;5049764;27;105870;-65
2022/08/16 03:17:43;;;;;;;3.07;2.77;;;;;;;16.75;100.00;95849.78;5050728;27;102050;-65
2022/08/16 03:20:13;;;;;;;3.67;2.70;;;;;;;16.77;100.00;95847.56;5050560;27;105087;-65
2022/08/16 03:22:43;;;;;;;2.57;2.37;;;;;;;16.77;100.00;95844.88;5049832;27;105093;-65
2022/08/16 03:25:15;;;;;;;3.13;2.83;;;;;;;16.78;100.00;95851.88;5050623;27;102002;-65
2022/08/16 03:27:52;;;;;;;2.60;2.37;;;;;;;16.78;100.00;95847.28;5053127;27;104905;-65
2022/08/16 03:30:23;;;;;;;2.90;2.70;;;;;;;16.77;100.00;95850.25;5050441;27;101891;-65
2022/08/16 03:32:58;;;;;;;3.00;2.80;;;;;;;16.78;100.00;95843.81;5050320;27;105126;-64
2022/08/16 03:35:30;;;;;;;2.77;2.53;;;;;;;16.76;100.00;95848.69;5049517;27;104647;-65
2022/08/16 03:38:03;;;;;;;2.80;2.60;;;;;;;16.80;100.00;95847.78;5050187;27;101930;-65
2022/08/16 03:40:34;;;;;;;2.90;2.60;;;;;;;16.82;100.00;95847.47;5050483;27;105085;-65
2022/08/16 03:43:04;;;;;;;2.90;2.70;;;;;;;16.85;100.00;95849.56;5049578;27;105622;-65
2022/08/16 03:45:32;;;;;;;2.53;2.33;;;;;;;16.85;100.00;95849.56;5050498;27;101931;-65
2022/08/16 03:48:00;;;;;;;2.53;2.33;;;;;;;16.89;100.00;95842.50;5050204;27;105063;-65
2022/08/16 03:50:27;;;;;;;2.70;2.57;;;;;;;16.91;100.00;95834.91;5052283;27;105204;-65
2022/08/16 03:52:55;;;;;;;3.10;2.90;;;;;;;16.93;100.00;95838.09;5049131;27;105007;-65
2022/08/16 03:55:24;;;;;;;2.70;2.50;;;;;;;16.95;100.00;95835.91;5049368;27;105353;-65
2022/08/16 03:57:52;;;;;;;3.07;2.70;;;;;;;16.90;100.00;95834.13;5049519;27;102378;-65
2022/08/16 04:00:25;;;;;;;2.90;2.70;;;;;;;16.90;100.00;95839.47;5050066;27;105177;-65
2022/08/16 04:02:55;;;;;;;2.80;2.60;;;;;;;16.89;100.00;95839.81;5049076;27;105368;-65
2022/08/16 04:05:23;;;;;;;2.60;2.40;;;;;;;16.91;100.00;95840.28;5049935;27;101995;-65
2022/08/16 04:07:50;;;;;;;4.20;2.50;;;;;;;16.92;100.00;95837.31;5032947;27;104991;-65
2022/08/16 04:10:18;;;;;;;2.60;2.40;;;;;;;16.95;100.00;95833.22;5049120;27;105158;-65
2022/08/16 04:12:46;;;;;;;2.67;2.57;;;;;;;16.98;100.00;95832.59;5053037;27;101968;-65
2022/08/16 04:15:17;;;;;;;2.30;2.20;;;;;;;17.00;100.00;95830.44;5049120;27;105097;-65
2022/08/16 04:18:06;;;;;;;2.50;2.30;;;;;;;17.02;100.00;95837.09;5049762;27;101807;-65
2022/08/16 04:20:34;;;;;;;2.23;2.13;;;;;;;17.08;100.00;95837.75;5049585;27;104760;-65
2022/08/16 04:23:06;;;;;;;2.87;2.07;;;;;;;17.10;100.00;95843.59;5048682;27;105543;-65
2022/08/16 04:25:34;;;;;;;3.00;2.10;;;;;;;17.09;100.00;95833.97;5049614;27;101899;-65
2022/08/16 04:28:05;;;;;;;2.23;2.10;;;;;;;17.11;100.00;95829.88;5049601;27;105287;-65
2022/08/16 04:30:32;;;;;;;2.73;2.53;;;;;;;17.16;100.00;95835.13;5048861;27;104207;-65
2022/08/16 04:33:01;;;;;;;3.57;2.90;;;;;;;17.19;100.00;95841.78;5049575;27;101861;-65
2022/08/16 04:35:30;;;;;;;4.70;3.10;;;;;;;17.18;100.00;95842.88;5051983;27;104747;-65
2022/08/16 04:37:57;;;;;;;3.33;3.13;;;;;;;17.14;100.00;95847.28;5049604;27;101807;-65
2022/08/16 04:40:32;;;;;;;4.97;3.50;;;;;;;17.15;100.00;95846.16;5049475;27;105356;-65
2022/08/16 04:43:00;;;;;;;3.77;3.47;;;;;;;17.15;100.00;95849.66;5048613;27;105707;-65
2022/08/16 04:45:31;;;;;;;4.13;3.77;;;;;;;17.14;100.00;95849.97;5049258;27;101819;-64
2022/08/16 04:47:59;;;;;;;3.80;3.50;;;;;;;17.13;100.00;95851.06;5049426;27;105316;-65
2022/08/16 04:50:32;;;;;;;3.87;3.53;;;;;;;17.14;100.00;95858.03;5047889;27;105252;-65
2022/08/16 04:53:15;;;;;;;4.00;3.70;;;;;;;17.04;100.00;95858.25;5049287;27;101935;-65
2022/08/16 04:55:44;;;;;;;4.13;3.83;;;;;;;17.10;100.00;95863.22;5051765;27;103835;-65
2022/08/16 04:58:13;;;;;;;3.83;3.53;;;;;;;17.15;100.00;95856.91;5048706;27;102032;-65
2022/08/16 05:00:42;;;;;;;3.80;3.53;;;;;;;17.06;100.00;95861.44;5048975;27;105373;-64
2022/08/16 05:03:14;;;;;;;3.90;3.50;;;;;;;17.10;100.00;95854.34;5049266;27;105046;-65
2022/08/16 05:05:49;;;;;;;3.40;3.20;;;;;;;17.22;100.00;95862.69;5052619;27;101834;-65
2022/08/16 05:08:22;;;;;;;3.40;3.20;;;;;;;17.30;100.00;95865.44;5051976;27;104957;-65
2022/08/16 05:10:58;;;;;;;3.80;3.50;;;;;;;17.34;100.00;95865.63;5051465;27;105057;-65
2022/08/16 05:13:25;;;;;;;3.93;3.63;;;;;;;17.34;100.00;95869.06;5052158;27;102154;-65
2022/08/16 05:15:54;;;;;;;3.80;3.50;;;;;;;17.38;100.00;95877.34;5051909;27;105173;-65
2022/08/16 05:18:25;;;;;;;4.80;4.40;;;;;;;17.41;100.00;95871.38;5055052;27;105351;-65
2022/08/16 05:20:56;;;;;;;4.20;3.90;;;;;;;17.49;100.00;95876.03;5052041;27;103819;-66
2022/08/16 05:23:23;;;;;;;4.17;3.83;;;;;;;17.61;100.00;95878.97;5051072;27;105070;-65
2022/08/16 05:25:51;;;;;;;4.53;4.23;;;;;;;17.62;100.00;95875.97;5051750;27;101895;-65
2022/08/16 05:28:19;;;;;;;4.97;4.50;;;;;;;17.68;100.00;95869.38;5051984;27;105525;-65
2022/08/16 05:30:56;;;;;;;4.23;3.93;;;;;;;17.77;100.00;95880.94;5048819;27;106095;-65
2022/08/16 05:33:27;;;;;;;3.80;3.40;;;;;;;17.85;100.00;95871.34;5051678;27;102423;-65
2022/08/16 05:35:56;;;;;;;4.13;3.83;;;;;;;17.85;100.00;95874.03;5051621;27;104888;-65
2022/08/16 05:38:31;;;;;;;4.40;3.70;;;;;;;17.87;100.00;95879.94;5051128;27;105433;-65
2022/08/16 05:41:02;;;;;;;3.40;3.20;;;;;;;17.92;100.00;95874.41;5055286;27;102155;-65
2022/08/16 05:43:38;;;;;;;3.47;3.27;;;;;;;17.99;100.00;95872.06;5048786;27;104890;-65
2022/08/16 05:46:07;;;;;;;3.90;3.60;;;;;;;18.01;100.00;95876.03;5051565;27;101909;-65
2022/08/16 05:48:36;;;;;;;4.03;3.70;;;;;;;18.07;100.00;95876.69;5051594;27;103842;-65
2022/08/16 05:51:07;;;;;;;3.70;3.40;;;;;;;18.09;100.00;95871.81;5050526;27;105078;-66
2022/08/16 05:53:35;;;;;;;3.57;3.30;;;;;;;18.12;100.00;95876.56;5051643;27;102139;-65
2022/08/16 05:56:12;;;;;;;3.50;3.23;;;;;;;18.23;100.00;95877.88;5051501;27;105138;-65
2022/08/16 05:58:42;;;;;;;3.17;2.93;;;;;;;18.30;100.00;95888.97;5050206;27;105103;-65
2022/08/16 06:01:14;;;;;;;3.40;3.10;;;;;;;18.39;100.00;95887.16;5048797;27;101859;-65
2022/08/16 06:03:45;;;;;;;3.40;3.10;;;;;;;18.49;100.00;95885.00;5054189;27;105087;-65
2022/08/16 06:06:28;;;;;;;3.40;3.10;;;;;;;18.61;100.00;95885.19;5050701;27;102038;-66
2022/08/16 06:08:55;;;;;;;3.97;3.67;;;;;;;18.75;100.00;95883.13;5051200;27;105199;-65
2022/08/16 06:11:23;;;;;;;3.60;3.40;;;;;;;18.90;100.00;95888.09;5050681;27;104734;-65
2022/08/16 06:13:54;;;;;;;3.80;3.50;;;;;;;18.97;100.00;95882.25;5051512;27;101785;-65
2022/08/16 06:16:34;;;;;;;3.77;3.50;;;;;;;19.08;100.00;95878.91;5050960;27;104997;-65
2022/08/16 06:19:01;;;;;;;3.50;3.20;;;;;;;19.13;100.00;95876.06;5050366;27;104648;-65
2022/08/16 06:21:28;;;;;;;3.03;2.83;;;;;;;19.14;100.00;95883.03;5051188;27;101996;-66
2022/08/16 06:24:01;;;;;;;2.80;2.33;;;;;;;18.76;100.00;95875.88;5051662;27;104262;-65
2022/08/16 06:26:32;;;;;;;2.50;2.30;;;;;;;18.48;100.00;95877.22;5042784;27;105202;-66
2022/08/16 06:28:59;;;;;;;2.43;2.30;;;;;;;18.44;100.00;95879.75;5030908;28;105290;-65
2022/08/16 06:31:36;;;;;;;3.27;2.30;;;;;;;18.44;100.00;95878.94;5030441;28;105250;-65
2022/08/16 06:34:05;;;;;;;2.50;2.30;;;;;;;18.47;100.00;95879.09;5050360;27;101892;-66
2022/08/16 06:36:35;;;;;;;3.80;2.07;;;;;;;18.44;100.00;95884.31;5051355;27;105700;-65
2022/08/16 06:39:12;;;;;;;4.83;2.03;;;;;;;18.41;100.00;95879.56;5050487;27;105273;-65
2022/08/16 06:41:59;;;;;;;3.97;2.20;;;;;;;18.62;100.00;95878.69;5052008;27;102319;-65
2022/08/16 06:44:45;;;;;;;4.80;2.23;;;;;;;18.98;100.00;95881.94;5049891;27;101987;-66
2022/08/16 06:47:33;;;;;;;2.87;1.90;;;;;;;19.09;100.00;95880.53;5050526;27;104560;-65
2022/08/16 06:50:00;;;;;;;2.10;2.00;;;;;;;19.23;100.00;95880.41;5054114;27;101712;-66
2022/08/16 06:52:38;;;;;;;1.80;1.70;;;;;;;19.17;100.00;95873.53;5050376;27;105628;-66
2022/08/16 06:55:10;;;;;;;3.73;1.97;;;;;;;19.25;100.00;95872.78;5050883;27;101968;-65
2022/08/16 06:57:41;;;;;;;2.10;2.00;;;;;;;19.49;100.00;95871.19;5050570;27;103680;-66
2022/08/16 07:00:13;;;;;;;2.03;1.83;;;;;;;19.41;100.00;95874.66;5050108;27;105616;-66
2022/08/16 07:02:51;;;;;;;1.90;1.80;;;;;;;19.71;100.00;95881.00;5049348;27;101942;-65
2022/08/16 07:05:18;;;;;;;2.33;2.20;;;;;;;20.04;100.00;95873.94;5047780;27;104781;-66
2022/08/16 07:08:03;;;;;;;1.80;1.70;;;;;;;20.30;100.00;95877.38;5029907;28;105262;-66
2022/08/16 07:10:31;;;;;;;2.20;2.00;;;;;;;20.27;100.00;95872.63;5033928;28;101849;-66
2022/08/16 07:12:57;;;;;;;3.33;2.10;;;;;;;20.32;100.00;95869.75;5046794;27;105541;-66
2022/08/16 07:15:26;;;;;;;1.80;1.70;;;;;;;20.65;100.00;95865.31;5030503;28;101932;-65
2022/08/16 07:17:54;;;;;;;1.90;1.70;;;;;;;21.00;100.00;95870.22;5030081;28;105371;-66
2022/08/16 07:20:24;;;;;;;2.03;1.93;;;;;;;21.22;100.00;95860.97;5029568;28;106048;-66
2022/08/16 07:22:55;;;;;;;2.80;2.03;;;;;;;21.36;100.00;95866.94;5030440;28;102178;-66
2022/08/16 07:25:35;;;;;;;2.33;1.80;;;;;;;21.50;100.00;95859.31;5030352;28;104894;-66
2022/08/16 07:28:02;;;;;;;2.87;2.17;;;;;;;21.61;100.00;95855.06;5029889;28;102653;-66
2022/08/16 07:30:35;;;;;;;1.97;1.80;;;;;;;21.91;100.00;95851.94;5029913;28;101907;-65
2022/08/16 07:33:06;;;;;;;2.53;1.60;;;;;;;22.18;100.00;95847.84;5039159;27;105283;-65
2022/08/16 07:35:33;;;;;;;1.83;1.70;;;;;;;22.25;100.00;95853.47;5049712;27;102085;-65
2022/08/16 07:38:00;;;;;;;1.67;1.57;;;;;;;22.39;100.00;95857.44;5050378;27;105283;-66
2022/08/16 07:40:36;;;;;;;2.63;1.63;;;;;;;22.61;100.00;95858.97;5029549;28;105308;-66
2022/08/16 07:43:04;;;;;;;1.87;1.50;;;;;;;22.49;100.00;95854.31;5030010;28;101974;-65
2022/08/16 07:45:33;;;;;;;3.77;1.57;;;;;;;22.31;100.00;95861.06;5029849;28;104635;-65
2022/08/16 07:48:01;;;;;;;1.60;1.50;;;;;;;22.48;100.00;95865.50;5046227;27;103846;-66
2022/08/16 07:50:31;;;;;;;1.90;1.80;;;;;;;22.69;100.00;95863.47;5046397;27;101919;-66
2022/08/16 07:52:58;;;;;;;1.50;1.40;;;;;;;22.95;100.00;95863.91;5046554;27;104919;-66
2022/08/16 07:56:17;;;;;;;1.93;1.70;;;;;;;23.00;100.00;95867.16;5034641;27;105525;-65
2022/08/16 07:58:44;;;;;;;1.80;1.53;;;;;;;22.77;100.00;95868.00;5029518;28;105143;-65
2022/08/16 08:01:14;;;;;;;1.70;1.60;;;;;;;22.76;100.00;95864.50;5029437;28;105372;-65
2022/08/16 08:03:47;;;;;;;2.33;1.20;;;;;;;22.99;100.00;95856.69;5031372;27;102208;-66
2022/08/16 08:06:31;;;;;;;1.90;1.80;;;;;;;23.14;100.00;95861.38;5049475;27;105060;-65
2022/08/16 08:09:05;;;;;;;1.63;1.33;;;;;;;23.30;100.00;95852.22;5049666;27;104878;-65
2022/08/16 08:11:32;;;;;;;1.50;1.40;;;;;;;23.23;100.00;95853.94;5051479;27;101882;-65
2022/08/16 08:14:02;;;;;;;2.20;1.50;;;;;;;23.42;100.00;95862.25;5049785;27;105117;-65
2022/08/16 08:17:15;;;;;;;1.73;1.50;;;;;;;23.24;100.00;95869.06;5049129;27;105954;-64
2022/08/16 08:19:46;;;;;;;1.67;1.50;;;;;;;23.38;100.00;95869.50;5053388;27;101919;-64
2022/08/16 08:22:15;;;;;;;1.53;1.40;;;;;;;23.72;100.00;95869.72;5049113;27;105747;-65
2022/08/16 08:24:51;;;;;;;1.50;1.40;;;;;;;23.55;100.00;95867.28;5049965;27;101855;-65
2022/08/16 08:27:22;;;;;;;1.67;1.57;;;;;;;23.95;100.00;95870.78;5049101;27;105790;-65
2022/08/16 08:29:49;;;;;;;1.83;1.30;;;;;;;23.96;100.00;95871.56;5046556;27;106161;-64
2022/08/16 08:32:20;;;;;;;1.90;1.70;;;;;;;23.70;100.00;95869.28;5049363;27;102081;-64
2022/08/16 08:34:47;;;;;;;1.53;1.40;;;;;;;24.18;100.00;95868.25;5048648;27;105453;-64
2022/08/16 08:37:26;;;;;;;2.23;1.60;;;;;;;24.48;100.00;95872.16;5048884;27;105340;-64
2022/08/16 08:39:57;;;;;;;1.53;1.43;;;;;;;24.70;100.00;95864.22;5044657;27;101920;-64
2022/08/16 08:42:25;;;;;;;1.97;1.50;;;;;;;24.96;100.00;95863.66;5043553;27;105250;-64
2022/08/16 08:44:52;;;;;;;1.37;1.30;;;;;;;25.18;100.00;95868.41;5039212;27;101964;-65
2022/08/16 08:47:50;;;;;;;1.57;1.47;;;;;;;25.16;100.00;95870.69;5049394;27;104416;-65
2022/08/16 08:50:37;;;;;;;1.50;1.40;;;;;;;24.32;100.00;95863.22;5048896;27;104950;-65
2022/08/16 08:53:06;;;;;;;1.40;1.30;;;;;;;24.52;100.00;95867.59;5047249;27;102072;-65
2022/08/16 08:55:42;;;;;;;1.87;1.50;;;;;;;24.96;100.00;95863.66;5032271;27;104959;-66
2022/08/16 08:58:10;;;;;;;1.43;1.37;;;;;;;24.84;100.00;95861.03;5040033;27;105376;-65
2022/08/16 09:01:04;;;;;;;1.33;1.30;;;;;;;24.91;100.00;95863.91;5025058;27;101958;-65
2022/08/16 09:03:31;;;;;;;1.43;1.33;;;;;;;25.17;100.00;95855.97;5029288;28;104001;-65
2022/08/16 09:05:59;;;;;;;2.20;1.30;;;;;;;25.60;100.00;95858.47;5031671;27;101726;-65
2022/08/16 09:08:30;;;;;;;1.50;1.40;;;;;;;25.46;100.00;95858.97;5033886;27;102467;-66
2022/08/16 09:11:02;;;;;;;1.10;1.10;;;;;;;25.41;100.00;95855.72;5048429;27;105105;-64
2022/08/16 09:13:30;;;;;;;2.17;1.23;;;;;;;25.41;100.00;95858.44;5049115;27;102002;-64
2022/08/16 09:16:07;;;;;;;1.37;1.20;;;;;;;25.92;100.00;95857.19;5029576;27;103723;-65
2022/08/16 09:18:47;;;;;;;1.30;1.20;;;;;;;26.28;100.00;95862.94;5048175;27;105582;-66
2022/08/16 09:21:15;;;;;;;1.30;1.30;;;;;;;26.66;100.00;95856.59;5053293;27;101799;-66
2022/08/16 09:23:44;;;;;;;1.43;1.40;;;;;;;26.55;96.08;95848.25;5028734;28;105590;-65
2022/08/16 09:26:14;;;;;;;1.40;1.40;;;;;;;26.95;100.00;95856.69;5031512;28;105468;-66
2022/08/16 09:28:43;;;;;;;1.40;1.30;;;;;;;26.81;96.25;95852.94;5030608;27;104910;-65
2022/08/16 09:31:16;;;;;;;2.20;1.30;;;;;;;26.37;87.96;95849.06;5048459;27;105015;-64
2022/08/16 09:33:45;;;;;;;3.20;1.33;;;;;;;26.39;98.05;95857.66;5048817;27;101999;-65
2022/08/16 09:36:21;;;;;;;1.40;1.30;;;;;;;26.43;89.04;95851.09;5048828;27;105513;-65
2022/08/16 09:38:50;;;;;;;1.30;1.20;;;;;;;26.35;90.60;95849.44;5042795;27;105611;-65
2022/08/16 09:41:17;;;;;;;1.30;1.27;;;;;;;26.34;94.10;95852.50;5046556;27;102002;-65
2022/08/16 09:43:45;;;;;;;1.40;1.30;;;;;;;26.78;88.43;95849.00;5050197;27;102521;-65
2022/08/16 09:46:41;;;;;;;1.20;1.20;;;;;;;26.27;87.47;95850.44;5049492;27;103290;-66
2022/08/16 09:52:30;;;;;;;1.83;1.23;;;;;;;26.97;83.59;95850.84;5032944;28;103007;-65
2022/08/16 09:55:02;;;;;;;1.10;1.00;;;;;;;27.24;67.62;95852.47;5033177;28;102055;-66
2022/08/16 09:57:29;;;;;;;2.00;1.20;;;;;;;27.65;65.75;95848.69;5031556;28;105746;-64
2022/08/16 09:59:56;;;;;;;1.33;1.30;;;;;;;28.06;62.20;95850.38;5032896;28;102530;-65
2022/08/16 10:02:24;;;;;;;1.10;1.10;;;;;;;28.00;61.89;95846.41;5033216;28;101902;-65
2022/08/16 10:04:51;;;;;;;1.30;1.20;;;;;;;27.30;63.36;95840.81;5050747;27;104992;-65
2022/08/16 10:07:54;;;;;;;1.00;1.00;;;;;;;28.13;60.43;95842.25;5048669;27;102692;-66
2022/08/16 10:10:24;;;;;;;1.30;1.30;;;;;;;27.96;51.83;95840.13;5037464;27;101790;-66
2022/08/16 10:15:51;;;;;;;1.37;1.27;;;;;;;28.20;51.90;95842.31;5053178;27;102309;-66
2022/08/16 10:18:21;;;;;;;1.10;1.10;;;;;;;27.84;51.21;95832.19;5033152;28;102834;-66
2022/08/16 10:20:48;;;;;;;1.27;1.20;;;;;;;27.63;52.53;95835.41;5043027;27;101658;-66
2022/08/16 10:23:16;;;;;;;1.10;1.00;;;;;;;28.14;63.82;95835.63;5052979;27;101840;-66
2022/08/16 10:26:09;;;;;;;1.27;1.20;;;;;;;28.54;51.18;95830.16;5052759;27;104922;-66
2022/08/16 10:28:37;;;;;;;1.47;1.37;;;;;;;29.02;50.97;95839.94;5031155;27;105232;-66
2022/08/16 10:31:06;;;;;;;1.17;1.08;;;;;;;29.39;49.20;95835.09;5051442;27;101903;-66
2022/08/16 10:33:35;;;;;;;1.10;1.00;;;;;;;29.31;48.87;95830.75;5051288;27;105213;-66
2022/08/16 10:36:12;;;;;;;1.10;1.10;;;;;;;29.68;47.20;95836.81;5055569;27;102627;-66
2022/08/16 10:38:41;;;;;;;1.20;1.10;;;;;;;29.63;44.92;95831.69;5051318;27;105531;-66
2022/08/16 10:41:11;;;;;;;1.10;1.10;;;;;;;29.82;46.19;95828.66;5052164;27;102829;-65
2022/08/16 10:43:40;;;;;;;1.30;1.20;;;;;;;30.09;46.03;95833.44;5052594;27;101842;-65
2022/08/16 10:46:27;;;;;;;1.30;1.20;;;;;;;29.86;43.20;95823.97;5052561;27;102875;-66
2022/08/16 10:49:21;;;;;;;1.00;1.00;;;;;;;29.96;44.09;95828.72;5052122;27;102813;-66
2022/08/16 10:51:48;;;;;;;1.20;1.10;;;;;;;29.25;41.61;95837.75;5052309;27;101776;-64
2022/08/16 10:54:16;;;;;;;1.30;1.20;;;;;;;29.48;45.32;95833.56;5038044;27;102925;-65
2022/08/16 10:56:49;;;;;;;1.40;1.30;;;;;;;29.57;43.22;95830.50;5036241;27;103842;-65
2022/08/16 10:59:17;;;;;;;1.15;1.10;;;;;;;28.63;43.76;95820.47;5054655;27;101885;-65
2022/08/16 11:01:44;;;;;;;1.30;1.20;;;;;;;29.64;43.92;95830.56;5040986;27;105651;-65
2022/08/16 11:04:12;;;;;;;1.30;1.30;;;;;;;29.32;44.92;95822.13;5031880;27;101951;-65
2022/08/16 11:06:49;;;;;;;1.00;1.00;;;;;;;28.96;42.60;95822.28;5048341;27;102810;-65
2022/08/16 11:09:16;;;;;;;1.77;1.20;;;;;;;28.88;41.95;95826.13;5029767;28;105488;-65
2022/08/16 11:11:43;;;;;;;1.02;1.02;;;;;;;27.65;45.17;95821.38;5036193;27;103172;-65
2022/08/16 11:14:12;;;;;;;1.58;1.20;;;;;;;27.33;46.93;95820.19;5052326;27;102476;-66
2022/08/16 11:16:45;;;;;;;1.10;1.10;;;;;;;28.38;46.34;95822.19;5051399;27;102058;-65
2022/08/16 11:19:48;;;;;;;1.60;1.50;;;;;;;29.48;44.32;95819.09;5054316;27;101990;-65
2022/08/16 11:22:15;;;;;;;1.00;1.00;;;;;;;30.04;42.24;95822.06;5051616;27;103151;-66
2022/08/16 11:24:42;;;;;;;1.15;1.13;;;;;;;30.55;40.25;95822.53;5032420;27;103817;-65
2022/08/16 11:27:17;;;;;;;1.30;1.20;;;;;;;29.85;36.95;95822.41;5045473;27;102533;-67
2022/08/16 11:29:46;;;;;;;1.40;1.40;;;;;;;30.23;37.25;95821.75;5051602;27;103260;-64
2022/08/16 11:32:14;;;;;;;1.20;1.20;;;;;;;28.85;37.10;95824.16;5044822;27;102164;-67
2022/08/16 11:34:40;;;;;;;1.40;1.30;;;;;;;29.67;35.89;95825.06;5045707;27;104151;-66
2022/08/16 11:37:10;;;;;;;1.95;1.30;;;;;;;30.12;35.46;95821.72;5051097;27;102839;-65
2022/08/16 11:39:37;;;;;;;1.50;1.40;;;;;;;28.49;35.61;95820.34;5031863;27;102010;-65
2022/08/16 11:42:04;;;;;;;1.33;1.23;;;;;;;28.38;37.26;95821.44;5034572;27;102818;-66
2022/08/16 11:44:31;;;;;;;1.35;1.30;;;;;;;29.52;36.85;95820.66;5051047;27;102019;-65